Time;durP1;ratioP1;P1;durP2;ratioP2;P2;SDS_P1;SDS_P2;PMS_P1;PMS_P2;Temp;Humidity;BMP_temperature;BMP_pressure;BME280_temperature;BME280_humidity;BME280_pressure;Samples;Min_cycle;Max_cycle;Signal;HPM_P1;HPM_P2
2021/04/06 00:03:37;;;;;;;80.15;22.73;;;-0.30;99.90;;;;;;8332610;28;20045;-68
2021/04/06 00:07:39;;;;;;;80.03;23.30;;;-1.30;99.90;;;;;;8332540;28;20029;-67
2021/04/06 00:11:43;;;;;;;79.63;22.55;;;-1.70;99.90;;;;;;8330985;28;20026;-67
2021/04/06 00:15:45;;;;;;;78.80;22.65;;;-1.80;99.90;;;;;;8330473;28;20554;-67
2021/04/06 00:19:47;;;;;;;77.47;22.42;;;-1.80;99.90;;;;;;8330792;28;20447;-67
2021/04/06 00:23:48;;;;;;;77.40;22.02;;;-1.70;99.90;;;;;;8331837;28;20029;-67
2021/04/06 00:27:51;;;;;;;78.22;22.40;;;-1.60;99.90;;;;;;8331568;28;20021;-68
2021/04/06 00:31:56;;;;;;;77.03;22.05;;;-1.40;99.90;;;;;;8331726;28;20392;-67
2021/04/06 00:35:59;;;;;;;77.00;21.98;;;-1.60;99.90;;;;;;8331436;28;20032;-67
2021/04/06 00:40:06;;;;;;;83.13;22.83;;;-1.60;99.90;;;;;;8330348;28;20124;-66
2021/04/06 00:44:13;;;;;;;83.20;22.90;;;-1.70;99.90;;;;;;8330034;28;20026;-67
2021/04/06 00:48:18;;;;;;;82.22;23.08;;;-1.90;99.90;;;;;;8330639;28;20025;-67
2021/04/06 00:52:18;;;;;;;82.25;22.98;;;-1.90;99.90;;;;;;8330594;28;20147;-67
2021/04/06 00:56:22;;;;;;;82.05;22.60;;;-2.30;99.90;;;;;;8329683;28;20030;-68
2021/04/06 01:00:29;;;;;;;80.78;22.27;;;-2.50;99.90;;;;;;8303817;28;20162;-67
2021/04/06 01:04:37;;;;;;;80.82;22.27;;;-2.70;99.90;;;;;;8297005;28;20034;-67
2021/04/06 01:08:39;;;;;;;79.45;22.27;;;-2.60;99.90;;;;;;8297828;28;20033;-67
2021/04/06 01:12:40;;;;;;;77.80;22.35;;;-2.20;99.90;;;;;;8296250;28;20037;-67
2021/04/06 01:16:40;;;;;;;77.05;22.25;;;-2.30;99.90;;;;;;8296233;28;20073;-67
2021/04/06 01:20:41;;;;;;;77.53;22.13;;;-2.40;99.90;;;;;;8297215;28;20022;-67
2021/04/06 01:24:43;;;;;;;77.85;22.27;;;-2.60;99.90;;;;;;8295902;28;20052;-67
2021/04/06 01:28:44;;;;;;;76.65;22.10;;;-2.60;99.90;;;;;;8311124;28;20036;-67
2021/04/06 01:32:44;;;;;;;74.55;21.88;;;-2.70;99.90;;;;;;8328361;28;20021;-67
2021/04/06 01:36:46;;;;;;;74.85;21.95;;;-3.00;99.90;;;;;;8328283;28;20025;-67
2021/04/06 01:40:47;;;;;;;72.70;21.58;;;-3.20;99.90;;;;;;8329599;28;20029;-67
2021/04/06 01:44:50;;;;;;;72.22;21.67;;;-3.20;99.90;;;;;;8329363;28;20113;-67
2021/04/06 01:48:51;;;;;;;72.22;21.67;;;-3.50;99.90;;;;;;8328989;28;20028;-67
2021/04/06 01:52:52;;;;;;;73.38;22.33;;;-3.40;99.90;;;;;;8328921;28;20049;-66
2021/04/06 01:56:58;;;;;;;71.65;21.70;;;-3.40;99.90;;;;;;8327824;28;20029;-67
2021/04/06 02:01:20;;;;;;;71.63;21.92;;;-3.60;99.90;;;;;;8295299;28;20476;-67
2021/04/06 02:05:24;;;;;;;70.28;21.75;;;-3.70;99.90;;;;;;8294089;28;20057;-67
2021/04/06 02:09:25;;;;;;;70.63;21.77;;;-3.80;99.90;;;;;;8295760;28;20029;-67
2021/04/06 02:13:25;;;;;;;71.07;21.73;;;-4.00;99.90;;;;;;8295797;28;20484;-68
2021/04/06 02:17:26;;;;;;;71.13;22.00;;;-4.00;99.90;;;;;;8295644;28;20033;-67
2021/04/06 02:21:28;;;;;;;70.47;21.60;;;-3.70;99.90;;;;;;8294325;28;20022;-67
2021/04/06 02:25:30;;;;;;;68.93;21.27;;;-3.90;99.90;;;;;;8295094;28;20056;-67
2021/04/06 02:29:36;;;;;;;71.40;22.17;;;-4.00;99.90;;;;;;8314205;28;20026;-67
2021/04/06 02:33:37;;;;;;;68.72;21.67;;;-3.90;99.90;;;;;;8327848;28;20032;-67
2021/04/06 02:37:42;;;;;;;65.53;21.52;;;-4.00;99.90;;;;;;8326236;28;20488;-68
2021/04/06 02:41:42;;;;;;;65.88;21.52;;;-3.90;99.90;;;;;;8326583;28;20037;-68
2021/04/06 02:45:43;;;;;;;68.60;21.52;;;-4.00;99.90;;;;;;8327296;28;20480;-67
2021/04/06 02:49:45;;;;;;;70.18;22.13;;;-4.00;99.90;;;;;;8325448;28;20037;-68
2021/04/06 02:53:50;;;;;;;69.45;21.30;;;-4.00;99.90;;;;;;8326780;28;20055;-67
2021/04/06 02:57:53;;;;;;;13.73;11.07;;;-4.10;99.90;;;;;;8327978;28;20036;-67
2021/04/06 03:01:58;;;;;;;26.15;18.48;;;-4.00;99.90;;;;;;8326457;28;20059;-67
2021/04/06 03:06:02;;;;;;;;;;;-4.00;99.90;;;;;;8311114;28;20116;-67
2021/04/06 03:10:03;;;;;;;;;;;-4.00;99.90;;;;;;8299743;28;20598;-68
2021/04/06 03:14:05;;;;;;;24.40;11.33;;;-4.50;99.90;;;;;;8302893;28;20295;-67
2021/04/06 03:18:07;;;;;;;25.83;17.27;;;-4.50;99.90;;;;;;8293930;28;20014;-67
2021/04/06 03:22:08;;;;;;;30.95;14.57;;;-4.60;99.90;;;;;;8296147;28;20022;-67
2021/04/06 03:26:08;;;;;;;29.25;13.45;;;-4.80;99.90;;;;;;8292494;28;20064;-67
2021/04/06 03:30:10;;;;;;;28.08;12.88;;;-4.70;99.90;;;;;;8293131;28;20033;-67
2021/04/06 03:34:10;;;;;;;25.45;12.63;;;-4.80;99.90;;;;;;8294093;28;20036;-67
2021/04/06 03:38:11;;;;;;;23.13;11.80;;;-4.80;99.90;;;;;;8293135;28;20022;-67
2021/04/06 03:42:25;;;;;;;10.35;8.02;;;-4.70;99.90;;;;;;8294252;28;20018;-67
2021/04/06 03:46:26;;;;;;;17.00;16.20;;;-4.50;99.90;;;;;;8293022;28;20080;-67
2021/04/06 03:50:36;;;;;;;20.10;19.20;;;-4.60;99.90;;;;;;8293435;28;20038;-67
2021/04/06 03:54:39;;;;;;;;;;;-4.80;99.90;;;;;;8292878;28;20362;-67
2021/04/06 03:58:44;;;;;;;;;;;-4.70;99.90;;;;;;8307664;28;19906;-67
2021/04/06 04:02:44;;;;;;;22.45;10.68;;;-4.80;99.90;;;;;;8323282;28;19990;-67
2021/04/06 04:06:45;;;;;;;38.50;36.70;;;-4.90;99.90;;;;;;8307109;28;20447;-67
2021/04/06 04:10:45;;;;;;;10.18;9.73;;;-4.80;99.90;;;;;;8307491;28;20018;-67
2021/04/06 04:14:46;;;;;;;14.53;13.90;;;-4.60;99.90;;;;;;8309691;28;20033;-67
2021/04/06 04:18:46;;;;;;;14.40;13.75;;;-4.20;99.90;;;;;;8292217;28;20265;-67
2021/04/06 04:22:48;;;;;;;18.20;15.48;;;-3.80;99.90;;;;;;8293660;28;20024;-67
2021/04/06 04:26:48;;;;;;;21.35;15.05;;;-3.60;99.90;;;;;;8299735;28;20038;-68
2021/04/06 04:30:53;;;;;;;19.45;13.07;;;-3.60;99.90;;;;;;8323925;28;20653;-67
2021/04/06 04:34:54;;;;;;;19.35;12.65;;;-3.50;99.90;;;;;;8325527;28;20038;-67
2021/04/06 04:38:54;;;;;;;26.63;18.33;;;-3.50;99.90;;;;;;8327449;28;20483;-67
2021/04/06 04:42:56;;;;;;;25.48;16.33;;;-3.70;99.90;;;;;;8330718;28;20061;-68
2021/04/06 04:46:56;;;;;;;27.48;16.73;;;-3.80;99.90;;;;;;8330691;28;20021;-68
2021/04/06 04:50:57;;;;;;;24.00;15.93;;;-3.70;99.90;;;;;;8330689;28;20068;-67
2021/04/06 04:54:58;;;;;;;29.92;19.55;;;-3.90;99.90;;;;;;8313611;28;20650;-67
2021/04/06 04:58:58;;;;;;;22.65;15.32;;;-3.90;99.90;;;;;;8312960;28;20495;-67
2021/04/06 05:03:00;;;;;;;29.48;19.45;;;-4.00;99.90;;;;;;8314718;28;21786;-67
2021/04/06 05:07:01;;;;;;;31.77;20.50;;;-4.00;99.90;;;;;;8317303;28;20022;-67
2021/04/06 05:11:02;;;;;;;37.05;20.95;;;-3.70;99.90;;;;;;8314064;28;20049;-67
2021/04/06 05:15:05;;;;;;;35.55;19.33;;;-3.20;99.90;;;;;;8307612;28;20048;-67
2021/04/06 05:19:05;;;;;;;45.28;23.23;;;-3.00;99.90;;;;;;8319971;28;20049;-67
2021/04/06 05:23:06;;;;;;;45.15;23.33;;;-2.80;99.90;;;;;;8317822;28;20040;-67
2021/04/06 05:27:06;;;;;;;46.67;22.70;;;-2.50;99.90;;;;;;8320859;28;20026;-67
2021/04/06 05:31:07;;;;;;;44.88;21.85;;;-2.40;99.90;;;;;;8321223;28;20535;-67
2021/04/06 05:35:08;;;;;;;46.45;25.30;;;-2.30;99.90;;;;;;8309769;28;20048;-66
2021/04/06 05:39:09;;;;;;;46.75;22.13;;;-2.10;99.90;;;;;;8308455;28;20021;-66
2021/04/06 05:43:13;;;;;;;40.40;22.70;;;-1.90;99.90;;;;;;8328317;28;20121;-67
2021/04/06 05:47:25;;;;;;;72.78;22.25;;;-1.70;99.90;;;;;;8304366;28;20041;-67
2021/04/06 05:51:27;;;;;;;73.85;22.10;;;-1.70;99.90;;;;;;8303861;28;20038;-66
2021/04/06 05:55:28;;;;;;;74.18;22.15;;;-1.30;99.90;;;;;;8311516;28;20119;-65
2021/04/06 05:59:28;;;;;;;74.97;22.00;;;-1.00;99.90;;;;;;8305924;28;20017;-66
2021/04/06 06:03:30;;;;;;;72.85;22.95;;;-0.80;99.90;;;;;;8306743;28;20465;-66
2021/04/06 06:07:32;;;;;;;70.38;21.65;;;-1.20;99.90;;;;;;8319106;28;20457;-66
2021/04/06 06:11:33;;;;;;;69.38;21.45;;;-1.10;99.90;;;;;;8295047;28;20030;-66
2021/04/06 06:15:33;;;;;;;71.43;21.75;;;-1.20;99.90;;;;;;8295793;28;20057;-66
2021/04/06 06:19:34;;;;;;;72.25;21.77;;;-1.10;99.90;;;;;;8297035;28;20032;-66
2021/04/06 06:23:38;;;;;;;73.32;21.80;;;-1.00;99.90;;;;;;8295620;28;20038;-66
2021/04/06 06:27:47;;;;;;;74.78;22.13;;;-0.70;99.90;;;;;;8299013;28;20041;-66
2021/04/06 06:31:50;;;;;;;73.82;22.00;;;-0.70;99.90;;;;;;8324289;28;20024;-65
2021/04/06 06:36:00;;;;;;;74.72;22.13;;;-0.40;99.90;;;;;;8318887;28;20071;-67
2021/04/06 06:40:03;;;;;;;;;;;-0.50;99.90;;;;;;8295503;28;20030;-66
2021/04/06 06:44:04;;;;;;;76.40;22.85;;;-0.50;99.90;;;;;;8305612;28;19913;-66
2021/04/06 06:48:05;;;;;;;78.72;22.92;;;-0.40;99.90;;;;;;8314420;28;20029;-66
2021/04/06 06:52:26;;;;;;;73.97;22.10;;;-0.10;99.90;;;;;;8316150;28;20053;-66
2021/04/06 06:56:39;;;;;;;76.68;22.35;;;0.10;99.90;;;;;;8307874;28;20164;-67
2021/04/06 07:00:52;;;;;;;78.53;22.70;;;0.30;99.90;;;;;;8311338;28;20120;-67
2021/04/06 07:05:07;;;;;;;79.03;22.52;;;0.40;99.90;;;;;;8312148;28;20033;-66
2021/04/06 07:09:30;;;;;;;62.10;21.45;;;0.70;99.90;;;;;;8310241;28;20025;-66
2021/04/06 07:13:33;;;;;;;58.50;21.10;;;1.00;99.90;;;;;;8309390;28;20033;-66
2021/04/06 07:17:34;;;;;;;62.10;21.60;;;0.80;99.90;;;;;;8310103;28;20075;-67
2021/04/06 07:21:36;;;;;;;61.40;21.45;;;0.90;99.90;;;;;;8311760;28;20017;-67
2021/04/06 07:25:40;;;;;;;61.83;21.50;;;1.00;99.90;;;;;;8306793;28;20038;-66
2021/04/06 07:29:42;;;;;;;62.60;21.55;;;1.10;99.90;;;;;;8300276;28;20109;-64
2021/04/06 07:33:45;;;;;;;66.13;21.85;;;1.00;99.90;;;;;;8327018;28;20029;-65
2021/04/06 07:37:47;;;;;;;69.10;21.77;;;1.40;99.90;;;;;;8304885;28;20060;-65
2021/04/06 07:41:47;;;;;;;72.47;22.08;;;2.00;99.90;;;;;;8318720;28;20103;-64
2021/04/06 07:45:48;;;;;;;61.05;21.05;;;2.40;99.90;;;;;;8314750;28;20033;-66
2021/04/06 07:49:49;;;;;;;65.97;21.75;;;1.90;99.90;;;;;;8306105;28;20043;-66
2021/04/06 07:54:00;;;;;;;69.13;22.20;;;1.70;99.90;;;;;;8305444;28;20461;-65
2021/04/06 07:58:00;;;;;;;70.47;22.10;;;2.00;99.90;;;;;;8296915;28;20096;-67
2021/04/06 08:02:03;;;;;;;68.28;22.08;;;2.20;99.90;;;;;;8293754;28;20034;-67
2021/04/06 08:06:20;;;;;;;67.28;22.10;;;1.70;99.90;;;;;;8311883;28;20052;-67
2021/04/06 08:10:27;;;;;;;67.72;22.00;;;1.30;99.90;;;;;;8304051;28;20029;-66
2021/04/06 08:14:30;;;;;;;67.43;21.95;;;1.00;99.90;;;;;;8311806;28;20021;-67
2021/04/06 08:19:04;;;;;;;69.55;22.05;;;1.20;99.90;;;;;;8321116;28;20112;-66
2021/04/06 08:23:07;;;;;;;68.10;21.65;;;1.60;99.90;;;;;;8307666;28;20044;-66
2021/04/06 08:27:33;;;;;;;70.18;21.77;;;1.70;99.90;;;;;;8320093;28;20022;-66
2021/04/06 08:31:34;;;;;;;69.70;21.73;;;1.90;99.90;;;;;;8322050;28;20079;-67
2021/04/06 08:35:48;;;;;;;70.93;21.90;;;2.20;99.90;;;;;;8315875;28;20025;-66
2021/04/06 08:39:49;;;;;;;72.65;21.90;;;2.10;99.90;;;;;;8320192;28;20025;-67
2021/04/06 08:43:59;;;;;;;74.85;22.17;;;2.50;99.90;;;;;;8315918;28;20033;-66
2021/04/06 08:48:00;;;;;;;77.40;22.42;;;3.00;99.90;;;;;;8313056;28;20033;-67
2021/04/06 08:52:04;;;;;;;74.50;21.70;;;2.60;99.90;;;;;;8308059;28;20037;-66
2021/04/06 08:56:15;;;;;;;74.47;22.25;;;2.60;99.90;;;;;;8324312;28;20460;-66
2021/04/06 09:00:16;;;;;;;74.35;21.95;;;2.70;99.90;;;;;;8316218;28;20031;-66
2021/04/06 09:04:20;;;;;;;74.38;21.83;;;2.30;99.90;;;;;;8316669;28;20034;-66
2021/04/06 09:08:25;;;;;;;74.82;22.25;;;2.50;99.90;;;;;;8314349;28;20112;-66
2021/04/06 09:12:32;;;;;;;77.22;23.25;;;2.50;99.90;;;;;;8302270;28;20029;-67
2021/04/06 09:16:34;;;;;;;76.25;22.05;;;2.90;99.90;;;;;;8309003;28;20041;-64
2021/04/06 09:20:34;;;;;;;75.93;21.95;;;3.10;99.90;;;;;;8317750;28;20506;-64
2021/04/06 09:24:36;;;;;;;75.68;21.98;;;3.00;99.90;;;;;;8327569;28;20030;-65
2021/04/06 09:28:37;;;;;;;76.25;22.05;;;3.10;99.90;;;;;;8310850;28;20034;-65
2021/04/06 09:32:38;;;;;;;75.43;21.75;;;3.00;99.90;;;;;;8316289;28;20037;-65
2021/04/06 09:36:41;;;;;;;71.20;21.95;;;2.80;99.90;;;;;;8304494;28;20036;-66
2021/04/06 09:40:42;;;;;;;74.80;22.02;;;2.80;99.90;;;;;;8316113;28;20017;-65
2021/04/06 09:44:45;;;;;;;79.28;22.33;;;3.10;99.90;;;;;;8308149;28;20025;-65
2021/04/06 09:48:53;;;;;;;79.47;22.38;;;3.60;99.90;;;;;;8311252;28;20064;-65
2021/04/06 09:52:55;;;;;;;79.15;21.92;;;4.10;99.90;;;;;;8314721;28;20030;-66
2021/04/06 09:56:58;;;;;;;78.03;21.75;;;4.00;99.90;;;;;;8310113;28;20029;-66
2021/04/06 10:00:58;;;;;;;79.75;22.52;;;4.00;99.90;;;;;;8315447;28;20022;-66
2021/04/06 10:04:59;;;;;;;78.85;21.73;;;4.10;99.90;;;;;;8309374;28;20492;-66
2021/04/06 10:09:21;;;;;;;77.70;22.10;;;3.90;99.90;;;;;;8309536;28;20032;-65
2021/04/06 10:13:23;;;;;;;77.78;22.15;;;3.50;99.90;;;;;;8307471;28;20048;-66
2021/04/06 10:17:35;;;;;;;78.82;22.23;;;3.30;99.90;;;;;;8309745;28;20025;-65
2021/04/06 10:21:35;;;;;;;79.00;22.13;;;3.30;99.90;;;;;;8300925;28;20401;-64
2021/04/06 10:25:42;;;;;;;81.22;22.52;;;3.50;99.90;;;;;;8316199;28;20113;-64
2021/04/06 10:29:44;;;;;;;81.10;22.33;;;3.80;99.90;;;;;;8312159;28;20021;-65
2021/04/06 10:33:45;;;;;;;80.47;21.67;;;3.90;99.90;;;;;;8309081;28;20025;-64
2021/04/06 10:37:57;;;;;;;79.03;21.77;;;4.10;99.90;;;;;;8310631;28;20452;-64
2021/04/06 10:41:58;;;;;;;78.13;22.23;;;3.70;99.90;;;;;;8309405;28;20033;-64
2021/04/06 10:46:14;;;;;;;78.88;21.83;;;3.10;99.90;;;;;;8319279;28;20084;-65
2021/04/06 10:50:14;;;;;;;77.40;21.92;;;3.40;99.90;;;;;;8307544;28;20038;-65
2021/04/06 10:54:16;;;;;;;78.13;22.23;;;3.10;99.90;;;;;;8310572;28;20104;-64
2021/04/06 10:58:22;;;;;;;73.28;22.00;;;2.70;99.90;;;;;;8311803;28;20079;-65
2021/04/06 11:02:24;;;;;;;71.88;22.30;;;2.10;99.90;;;;;;8315981;28;20250;-65
2021/04/06 11:06:36;;;;;;;73.95;21.88;;;1.70;99.90;;;;;;8310088;28;20053;-65
2021/04/06 11:10:37;;;;;;;78.78;22.42;;;3.10;99.90;;;;;;8304937;28;20054;-64
2021/04/06 11:14:40;;;;;;;81.93;22.25;;;4.20;99.90;;;;;;8302138;28;20101;-64
2021/04/06 11:18:42;;;;;;;67.90;21.52;;;6.50;99.90;;;;;;8320966;28;20045;-66
2021/04/06 11:22:42;;;;;;;63.63;20.73;;;7.60;99.90;;;;;;8344742;28;20044;-66
2021/04/06 11:26:43;;;;;;;61.35;20.38;;;8.20;99.90;;;;;;8345458;28;20415;-66
2021/04/06 11:30:44;;;;;;;60.00;20.63;;;7.80;99.90;;;;;;8342353;28;20519;-66
2021/04/06 11:34:46;;;;;;;62.33;20.75;;;9.40;98.70;;;;;;8349067;28;20051;-66
2021/04/06 11:38:48;;;;;;;54.22;19.83;;;9.90;94.20;;;;;;8345359;28;20028;-66
2021/04/06 11:42:48;;;;;;;55.70;19.55;;;8.80;95.50;;;;;;8344293;28;20087;-64
2021/04/06 11:46:49;;;;;;;57.95;19.85;;;8.10;95.90;;;;;;8347605;28;20032;-65
2021/04/06 11:50:50;;;;;;;61.75;20.08;;;6.60;99.90;;;;;;8353724;28;20407;-65
2021/04/06 11:54:50;;;;;;;70.03;21.13;;;5.40;99.90;;;;;;8353975;28;20038;-64
2021/04/06 11:58:51;;;;;;;71.80;21.33;;;4.40;99.90;;;;;;8351561;28;20109;-64
2021/04/06 12:02:52;;;;;;;71.78;21.52;;;4.80;99.90;;;;;;8346031;28;20506;-64
2021/04/06 12:06:52;;;;;;;69.47;21.23;;;5.60;99.90;;;;;;8307478;28;20033;-64
2021/04/06 12:10:53;;;;;;;73.10;21.35;;;5.70;99.90;;;;;;8321982;28;20044;-64
2021/04/06 12:14:55;;;;;;;74.00;21.65;;;4.40;99.90;;;;;;8297975;28;20069;-64
2021/04/06 12:18:55;;;;;;;65.97;21.15;;;4.70;99.90;;;;;;8308323;28;20048;-65
2021/04/06 12:22:56;;;;;;;59.47;20.02;;;9.20;95.10;;;;;;8315473;28;20026;-64
2021/04/06 12:26:57;;;;;;;58.95;19.83;;;9.00;90.50;;;;;;8313218;28;20025;-64
2021/04/06 12:30:57;;;;;;;61.92;20.05;;;6.70;94.40;;;;;;8318807;28;20412;-64
2021/04/06 12:34:59;;;;;;;64.20;20.45;;;5.50;96.60;;;;;;8311272;28;20033;-64
2021/04/06 12:38:59;;;;;;;70.85;21.00;;;4.90;97.50;;;;;;8311141;28;20113;-64
2021/04/06 12:43:00;;;;;;;68.88;20.85;;;4.30;99.10;;;;;;8318998;28;20021;-65
2021/04/06 12:47:00;;;;;;;60.35;19.80;;;5.50;96.80;;;;;;8315742;28;20025;-64
2021/04/06 12:51:01;;;;;;;60.03;19.95;;;7.90;92.10;;;;;;8315692;28;20037;-64
2021/04/06 12:55:02;;;;;;;65.38;20.45;;;6.20;94.90;;;;;;8311445;28;20030;-64
2021/04/06 12:59:03;;;;;;;3.38;1.20;;;4.80;97.60;;;;;;8308947;28;20022;-64
2021/04/06 13:03:04;;;;;;;2.85;1.00;;;4.00;99.90;;;;;;8313754;28;20092;-64
2021/04/06 13:07:04;;;;;;;3.40;1.20;;;3.60;99.90;;;;;;8311476;28;20018;-63
2021/04/06 13:11:05;;;;;;;5.75;1.13;;;4.40;99.90;;;;;;8313276;28;20017;-64
2021/04/06 13:15:08;;;;;;;89.57;53.38;;;9.00;94.50;;;;;;8311716;28;20021;-65
2021/04/06 13:19:08;;;;;;;65.50;20.75;;;11.60;80.60;;;;;;8312854;28;20026;-63
2021/04/06 13:23:10;;;;;;;61.30;20.33;;;10.10;81.60;;;;;;8312144;28;20032;-64
2021/04/06 13:27:10;;;;;;;58.15;20.42;;;8.00;90.10;;;;;;8309566;28;20029;-63
2021/04/06 13:31:12;;;;;;;61.75;20.13;;;5.80;91.60;;;;;;8326173;28;20488;-62
2021/04/06 13:35:13;;;;;;;64.18;20.55;;;5.00;95.30;;;;;;8315882;28;20061;-62
2021/04/06 13:39:14;;;;;;;66.10;20.50;;;4.80;96.50;;;;;;8311549;28;20083;-62
2021/04/06 13:43:15;;;;;;;72.10;21.45;;;4.40;94.20;;;;;;8305075;28;20021;-63
2021/04/06 13:47:16;;;;;;;67.78;20.95;;;4.20;94.20;;;;;;8300604;28;20049;-66
2021/04/06 13:51:17;;;;;;;60.80;20.10;;;7.10;93.10;;;;;;8315294;28;20451;-65
2021/04/06 13:55:18;;;;;;;59.92;20.05;;;8.80;79.50;;;;;;8316132;28;20064;-64
2021/04/06 13:59:19;;;;;;;60.58;19.92;;;7.90;74.50;;;;;;8312426;28;20097;-64
2021/04/06 14:03:19;;;;;;;61.83;20.42;;;6.50;78.70;;;;;;8314163;28;20025;-65
2021/04/06 14:07:20;;;;;;;60.92;20.35;;;11.30;66.10;;;;;;8315898;28;20082;-64
2021/04/06 14:11:20;;;;;;;61.40;20.45;;;10.40;62.60;;;;;;8311233;28;20034;-65
2021/04/06 14:15:22;;;;;;;60.50;20.73;;;7.00;68.30;;;;;;8309234;28;20033;-65
2021/04/06 14:19:22;;;;;;;59.35;20.25;;;7.70;65.30;;;;;;8308009;28;20025;-65
2021/04/06 14:23:28;;;;;;;61.25;21.17;;;9.20;70.60;;;;;;8303794;28;20045;-64
2021/04/06 14:27:28;;;;;;;64.93;21.58;;;9.10;65.70;;;;;;8313442;28;20033;-64
2021/04/06 14:31:29;;;;;;;62.03;20.60;;;11.30;57.60;;;;;;8303280;28;20091;-66
2021/04/06 14:35:32;;;;;;;64.53;21.13;;;10.80;59.90;;;;;;8313171;28;20029;-67
2021/04/06 14:39:32;;;;;;;61.78;21.08;;;12.50;54.10;;;;;;8327313;28;20044;-68
2021/04/06 14:43:35;;;;;;;58.95;20.40;;;11.40;53.80;;;;;;8314330;28;20026;-66
2021/04/06 14:47:36;;;;;;;59.50;20.27;;;8.70;55.70;;;;;;8316384;28;20041;-67
2021/04/06 14:51:36;;;;;;;60.05;20.63;;;7.80;58.80;;;;;;8313226;28;20124;-64
2021/04/06 14:55:39;;;;;;;59.90;20.52;;;10.80;57.00;;;;;;8304302;28;20511;-64
2021/04/06 14:59:40;;;;;;;60.35;20.85;;;9.20;58.30;;;;;;8311288;28;20017;-64
2021/04/06 15:03:42;;;;;;;62.20;20.98;;;7.60;60.60;;;;;;8313284;28;20033;-64
2021/04/06 15:07:43;;;;;;;69.60;22.27;;;7.80;61.00;;;;;;8300262;28;20021;-64
2021/04/06 15:11:44;;;;;;;69.60;22.52;;;10.30;56.60;;;;;;8310307;28;20060;-64
2021/04/06 15:15:45;;;;;;;68.68;21.77;;;12.00;49.50;;;;;;8316734;28;20037;-65
2021/04/06 15:19:56;;;;;;;66.70;21.45;;;10.10;52.60;;;;;;8315102;28;20033;-65
2021/04/06 15:23:56;;;;;;;71.47;22.25;;;9.50;54.00;;;;;;8306206;28;20021;-65
2021/04/06 15:27:57;;;;;;;86.57;24.73;;;11.20;62.10;;;;;;8311923;28;20026;-66
2021/04/06 15:32:01;;;;;;;67.97;22.50;;;12.80;50.70;;;;;;8307741;28;20030;-66
2021/04/06 15:36:03;;;;;;;72.18;22.88;;;10.80;63.20;;;;;;8312374;28;20129;-66
2021/04/06 15:40:06;;;;;;;77.03;23.73;;;10.10;72.40;;;;;;8309884;28;20034;-65
2021/04/06 15:44:08;;;;;;;54.17;20.70;;;10.80;71.70;;;;;;8313211;28;20524;-65
2021/04/06 15:48:09;;;;;;;58.92;21.88;;;8.90;77.70;;;;;;8311002;28;20493;-64
2021/04/06 15:52:25;;;;;;;58.92;20.60;;;6.20;90.80;;;;;;8305546;28;20442;-65
2021/04/06 15:56:25;;;;;;;71.57;21.42;;;4.60;98.40;;;;;;8306972;28;20034;-66
2021/04/06 16:00:31;;;;;;;76.38;22.02;;;3.80;99.90;;;;;;8298083;28;20028;-66
2021/04/06 16:04:31;;;;;;;79.78;22.40;;;3.60;99.90;;;;;;8301463;28;20033;-66
2021/04/06 16:08:32;;;;;;;79.63;23.10;;;3.50;99.90;;;;;;8305672;28;20373;-66
2021/04/06 16:12:33;;;;;;;80.47;21.88;;;3.30;99.90;;;;;;8285456;28;20034;-66
2021/04/06 16:16:33;;;;;;;76.13;22.65;;;3.00;99.90;;;;;;8310247;28;20034;-66
2021/04/06 16:20:34;;;;;;;82.75;22.73;;;2.80;99.90;;;;;;8291682;28;20385;-66
2021/04/06 16:24:35;;;;;;;86.40;22.60;;;2.60;99.90;;;;;;8300907;28;20026;-66
2021/04/06 16:28:36;;;;;;;90.03;23.45;;;2.10;99.90;;;;;;8309347;28;20443;-66
2021/04/06 16:32:37;;;;;;;87.00;22.92;;;1.90;99.90;;;;;;8310535;28;20109;-66
2021/04/06 16:36:38;;;;;;;87.63;22.88;;;1.60;99.90;;;;;;8313118;28;20056;-67
2021/04/06 16:40:41;;;;;;;87.78;23.10;;;2.00;99.90;;;;;;8311867;28;20379;-66
2021/04/06 16:44:42;;;;;;;83.60;23.60;;;2.70;99.90;;;;;;8342218;28;20033;-69
2021/04/06 16:48:43;;;;;;;76.20;23.60;;;4.30;99.90;;;;;;8338097;28;20037;-69
2021/04/06 16:52:44;;;;;;;72.00;22.92;;;6.20;98.80;;;;;;8345781;28;20043;-70
2021/04/06 16:56:45;;;;;;;66.97;22.13;;;7.60;93.80;;;;;;8341414;28;20372;-69
2021/04/06 17:00:46;;;;;;;67.53;22.30;;;6.90;91.70;;;;;;8342471;28;20048;-67
2021/04/06 17:04:47;;;;;;;69.10;21.50;;;4.60;95.70;;;;;;8344527;28;20495;-67
2021/04/06 17:08:48;;;;;;;75.30;21.60;;;3.60;97.70;;;;;;8347062;28;20036;-67
2021/04/06 17:12:49;;;;;;;82.05;22.48;;;2.70;99.90;;;;;;8331789;28;20404;-66
2021/04/06 17:16:50;;;;;;;84.30;23.10;;;2.40;99.90;;;;;;8300760;28;20516;-66
2021/04/06 17:20:51;;;;;;;86.20;23.10;;;2.40;99.90;;;;;;8304982;28;20034;-66
2021/04/06 17:24:51;;;;;;;87.55;23.00;;;2.40;99.90;;;;;;8305513;28;20060;-68
2021/04/06 17:28:53;;;;;;;87.38;23.10;;;2.30;99.90;;;;;;8304702;28;20092;-66
2021/04/06 17:33:00;;;;;;;88.40;23.23;;;2.10;99.90;;;;;;8305339;28;20061;-68
2021/04/06 17:37:00;;;;;;;88.35;23.08;;;1.90;99.90;;;;;;8302632;28;20109;-67
2021/04/06 17:41:05;;;;;;;88.78;23.02;;;1.90;99.90;;;;;;8302176;28;20813;-66
2021/04/06 17:45:08;;;;;;;88.72;23.00;;;1.30;99.90;;;;;;8305112;28;20538;-67
2021/04/06 17:49:08;;;;;;;90.50;23.58;;;1.10;99.90;;;;;;8310043;28;20065;-67
2021/04/06 17:53:10;;;;;;;87.20;23.30;;;1.00;99.90;;;;;;8318526;28;20029;-69
2021/04/06 17:57:10;;;;;;;84.82;22.67;;;0.60;99.90;;;;;;8313271;28;20026;-68
2021/04/06 18:01:11;;;;;;;83.13;22.42;;;0.60;99.90;;;;;;8311352;28;20036;-69
2021/04/06 18:05:13;;;;;;;85.22;23.05;;;0.60;99.90;;;;;;8315464;28;20392;-67
2021/04/06 18:09:13;;;;;;;83.22;22.50;;;0.50;99.90;;;;;;8314443;28;20041;-67
2021/04/06 18:13:15;;;;;;;83.40;22.75;;;0.70;99.90;;;;;;8313007;28;20025;-68
2021/04/06 18:17:15;;;;;;;84.60;22.90;;;0.70;99.90;;;;;;8304834;28;20026;-68
2021/04/06 18:21:16;;;;;;;83.15;22.65;;;0.70;99.90;;;;;;8313791;28;20018;-67
2021/04/06 18:25:19;;;;;;;84.13;22.80;;;0.70;99.90;;;;;;8314555;28;20101;-69
2021/04/06 18:29:20;;;;;;;84.60;22.90;;;0.60;99.90;;;;;;8310838;28;20551;-68
2021/04/06 18:33:25;;;;;;;85.95;23.05;;;0.70;99.90;;;;;;8314510;28;20119;-68
2021/04/06 18:37:26;;;;;;;85.75;22.85;;;0.70;99.90;;;;;;8313911;28;20029;-68
2021/04/06 18:41:27;;;;;;;86.28;23.27;;;0.60;99.90;;;;;;8308458;28;20037;-67
2021/04/06 18:45:28;;;;;;;84.82;22.77;;;0.50;99.90;;;;;;8308524;28;20033;-67
2021/04/06 18:49:29;;;;;;;84.30;23.20;;;0.60;99.90;;;;;;8324371;28;20094;-67
2021/04/06 18:53:31;;;;;;;82.05;22.33;;;0.60;99.90;;;;;;8341594;28;20551;-67
2021/04/06 18:57:32;;;;;;;85.28;22.83;;;0.60;99.90;;;;;;8343824;28;20041;-68
2021/04/06 19:01:34;;;;;;;83.65;22.95;;;0.40;99.90;;;;;;8348778;28;20562;-67
2021/04/06 19:05:35;;;;;;;84.22;23.08;;;0.50;99.90;;;;;;8343120;28;20490;-68
2021/04/06 19:09:36;;;;;;;82.65;22.73;;;0.50;99.90;;;;;;8343262;28;20110;-68
2021/04/06 19:13:36;;;;;;;83.63;23.00;;;0.50;99.90;;;;;;8334545;28;20033;-67
2021/04/06 19:17:37;;;;;;;82.32;22.27;;;0.40;99.90;;;;;;8339456;28;20095;-67
2021/04/06 19:21:38;;;;;;;83.15;23.15;;;0.40;99.90;;;;;;8338453;28;20033;-67
2021/04/06 19:25:39;;;;;;;82.57;22.73;;;0.40;99.90;;;;;;8335049;28;20061;-67
2021/04/06 19:29:40;;;;;;;81.95;22.70;;;0.40;99.90;;;;;;8338356;28;20384;-67
2021/04/06 19:33:42;;;;;;;81.80;22.85;;;0.40;99.90;;;;;;8340225;28;20113;-67
2021/04/06 19:37:43;;;;;;;81.13;22.73;;;0.40;99.90;;;;;;8337562;28;20039;-67
2021/04/06 19:41:46;;;;;;;80.45;22.73;;;0.30;99.90;;;;;;8337051;28;20039;-67
2021/04/06 19:45:46;;;;;;;79.28;22.40;;;0.30;99.90;;;;;;8337964;28;20021;-67
2021/04/06 19:49:48;;;;;;;78.28;22.35;;;0.10;99.90;;;;;;8337801;28;20033;-68
2021/04/06 19:53:49;;;;;;;78.43;22.50;;;0.10;99.90;;;;;;8339378;28;20033;-67
2021/04/06 19:57:50;;;;;;;77.65;22.30;;;0.00;99.90;;;;;;8333025;28;20029;-67
2021/04/06 20:01:51;;;;;;;77.90;22.55;;;0.00;99.90;;;;;;8301260;28;20018;-67
2021/04/06 20:05:52;;;;;;;76.25;22.27;;;0.00;99.90;;;;;;8311588;28;20048;-67
2021/04/06 20:09:53;;;;;;;77.03;22.15;;;0.00;99.90;;;;;;8310647;28;20199;-67
2021/04/06 20:13:54;;;;;;;76.72;22.35;;;-0.10;99.90;;;;;;8307729;28;20373;-67
2021/04/06 20:17:55;;;;;;;77.00;22.40;;;0.00;99.90;;;;;;8311693;28;20037;-67
2021/04/06 20:21:58;;;;;;;77.25;22.35;;;-0.10;99.90;;;;;;8311807;28;20037;-67
2021/04/06 20:26:01;;;;;;;76.63;22.15;;;0.00;99.90;;;;;;8319952;28;20499;-67
2021/04/06 20:30:03;;;;;;;77.18;22.60;;;-0.10;99.90;;;;;;8318804;28;20034;-68
2021/04/06 20:34:15;;;;;;;76.10;22.20;;;0.00;99.90;;;;;;8320363;28;20033;-67
2021/04/06 20:38:16;;;;;;;76.75;22.42;;;-0.10;99.90;;;;;;8297502;28;20029;-67
2021/04/06 20:42:17;;;;;;;76.38;22.42;;;0.00;99.90;;;;;;8309868;28;20026;-67
2021/04/06 20:46:18;;;;;;;76.85;22.35;;;0.00;99.90;;;;;;8310211;28;20068;-66